sensor_id;sensor_type;location;lat;lon;timestamp;pressure;altitude;pressure_sealevel;temperature;humidity
13050;BME280;6591;51.446;5.404;2022-10-16T00:01:39;100717.56;;;18.61;54.80
13050;BME280;6591;51.446;5.404;2022-10-16T00:04:06;100719.28;;;18.62;54.73
13050;BME280;6591;51.446;5.404;2022-10-16T00:06:33;100714.78;;;18.63;54.92
13050;BME280;6591;51.446;5.404;2022-10-16T00:09:00;100712.09;;;18.63;54.69
13050;BME280;6591;51.446;5.404;2022-10-16T00:11:32;100714.03;;;18.60;54.86
13050;BME280;6591;51.446;5.404;2022-10-16T00:14:08;100713.16;;;18.60;54.67
13050;BME280;6591;51.446;5.404;2022-10-16T00:16:36;100708.75;;;18.59;54.77
13050;BME280;6591;51.446;5.404;2022-10-16T00:19:03;100722.34;;;18.57;54.66
13050;BME280;6591;51.446;5.404;2022-10-16T00:21:32;100718.06;;;18.55;54.48
13050;BME280;6591;51.446;5.404;2022-10-16T00:24:07;100710.34;;;18.50;54.50
13050;BME280;6591;51.446;5.404;2022-10-16T00:26:38;100709.59;;;18.48;54.52
13050;BME280;6591;51.446;5.404;2022-10-16T00:29:06;100704.47;;;18.45;54.56
13050;BME280;6591;51.446;5.404;2022-10-16T00:31:33;100701.19;;;18.42;54.57
13050;BME280;6591;51.446;5.404;2022-10-16T00:34:00;100709.47;;;18.39;54.39
13050;BME280;6591;51.446;5.404;2022-10-16T00:36:28;100707.06;;;18.36;54.37
13050;BME280;6591;51.446;5.404;2022-10-16T00:38:57;100715.34;;;18.33;54.76
13050;BME280;6591;51.446;5.404;2022-10-16T00:41:27;100717.44;;;18.29;54.77
13050;BME280;6591;51.446;5.404;2022-10-16T00:43:57;100723.06;;;18.26;54.70
13050;BME280;6591;51.446;5.404;2022-10-16T00:46:42;100729.78;;;18.20;54.75
13050;BME280;6591;51.446;5.404;2022-10-16T00:49:15;100727.19;;;18.19;54.90
13050;BME280;6591;51.446;5.404;2022-10-16T00:51:53;100722.09;;;18.16;54.75
13050;BME280;6591;51.446;5.404;2022-10-16T00:54:28;100725.00;;;18.13;54.73
13050;BME280;6591;51.446;5.404;2022-10-16T00:57:00;100716.31;;;18.09;54.56
13050;BME280;6591;51.446;5.404;2022-10-16T00:59:39;100712.19;;;18.05;54.37
13050;BME280;6591;51.446;5.404;2022-10-16T01:02:12;100721.31;;;18.03;54.42
13050;BME280;6591;51.446;5.404;2022-10-16T01:04:44;100719.09;;;17.97;54.50
13050;BME280;6591;51.446;5.404;2022-10-16T01:07:39;100707.16;;;17.90;54.91
13050;BME280;6591;51.446;5.404;2022-10-16T01:13:10;100704.94;;;17.84;54.77
13050;BME280;6591;51.446;5.404;2022-10-16T01:15:56;100706.25;;;17.78;54.77
13050;BME280;6591;51.446;5.404;2022-10-16T01:18:37;100707.34;;;17.75;54.82
13050;BME280;6591;51.446;5.404;2022-10-16T01:21:35;100702.44;;;17.69;55.19
13050;BME280;6591;51.446;5.404;2022-10-16T01:24:11;100711.25;;;17.71;54.80
13050;BME280;6591;51.446;5.404;2022-10-16T01:29:50;100722.25;;;17.68;55.65
13050;BME280;6591;51.446;5.404;2022-10-16T01:32:40;100722.25;;;17.68;55.57
13050;BME280;6591;51.446;5.404;2022-10-16T01:35:27;100715.03;;;17.69;55.59
13050;BME280;6591;51.446;5.404;2022-10-16T01:38:19;100716.63;;;17.71;55.76
13050;BME280;6591;51.446;5.404;2022-10-16T01:40:56;100715.53;;;17.74;55.43
13050;BME280;6591;51.446;5.404;2022-10-16T01:43:42;100716.16;;;17.77;55.78
13050;BME280;6591;51.446;5.404;2022-10-16T01:46:16;100719.09;;;17.86;56.00
13050;BME280;6591;51.446;5.404;2022-10-16T01:48:44;100719.47;;;17.92;55.79
13050;BME280;6591;51.446;5.404;2022-10-16T01:51:15;100720.06;;;17.96;55.65
13050;BME280;6591;51.446;5.404;2022-10-16T01:53:48;100713.50;;;18.00;55.56
13050;BME280;6591;51.446;5.404;2022-10-16T01:56:18;100715.84;;;18.04;55.52
13050;BME280;6591;51.446;5.404;2022-10-16T01:58:55;100720.34;;;18.04;55.82
13050;BME280;6591;51.446;5.404;2022-10-16T02:01:29;100714.88;;;18.05;55.57
13050;BME280;6591;51.446;5.404;2022-10-16T02:04:04;100720.84;;;18.09;55.78
13050;BME280;6591;51.446;5.404;2022-10-16T02:06:34;100716.72;;;18.16;55.81
13050;BME280;6591;51.446;5.404;2022-10-16T02:09:02;100719.25;;;18.17;55.75
13050;BME280;6591;51.446;5.404;2022-10-16T02:11:29;100723.41;;;18.21;55.53
13050;BME280;6591;51.446;5.404;2022-10-16T02:14:05;100719.03;;;18.20;55.61
13050;BME280;6591;51.446;5.404;2022-10-16T02:16:42;100714.50;;;18.21;55.35
13050;BME280;6591;51.446;5.404;2022-10-16T02:19:13;100717.06;;;18.23;55.63
13050;BME280;6591;51.446;5.404;2022-10-16T02:21:51;100717.31;;;18.19;55.76
13050;BME280;6591;51.446;5.404;2022-10-16T02:24:50;100716.72;;;18.16;55.86
13050;BME280;6591;51.446;5.404;2022-10-16T02:30:14;100718.66;;;18.14;55.61
13050;BME280;6591;51.446;5.404;2022-10-16T02:32:48;100721.34;;;18.14;55.65
13050;BME280;6591;51.446;5.404;2022-10-16T02:35:18;100727.69;;;18.13;55.59
13050;BME280;6591;51.446;5.404;2022-10-16T02:37:49;100729.50;;;18.12;55.44
13050;BME280;6591;51.446;5.404;2022-10-16T02:40:18;100730.38;;;18.13;55.59
13050;BME280;6591;51.446;5.404;2022-10-16T02:42:53;100726.81;;;18.12;55.52
13050;BME280;6591;51.446;5.404;2022-10-16T02:45:22;100733.06;;;18.13;55.23
13050;BME280;6591;51.446;5.404;2022-10-16T02:47:50;100724.38;;;18.09;55.59
13050;BME280;6591;51.446;5.404;2022-10-16T02:50:17;100719.97;;;18.08;55.28
13050;BME280;6591;51.446;5.404;2022-10-16T02:52:44;100727.19;;;18.08;55.87
13050;BME280;6591;51.446;5.404;2022-10-16T02:55:11;100728.31;;;18.05;55.66
13050;BME280;6591;51.446;5.404;2022-10-16T02:57:38;100717.66;;;18.04;55.70
13050;BME280;6591;51.446;5.404;2022-10-16T03:00:14;100716.19;;;18.00;55.37
13050;BME280;6591;51.446;5.404;2022-10-16T03:02:41;100726.94;;;18.00;55.15
13050;BME280;6591;51.446;5.404;2022-10-16T03:05:09;100729.75;;;17.98;55.35
13050;BME280;6591;51.446;5.404;2022-10-16T03:07:37;100734.25;;;17.98;55.71
13050;BME280;6591;51.446;5.404;2022-10-16T03:10:05;100734.38;;;17.96;55.75
13050;BME280;6591;51.446;5.404;2022-10-16T03:12:32;100732.53;;;17.97;55.85
13050;BME280;6591;51.446;5.404;2022-10-16T03:15:00;100723.63;;;17.96;56.03
13050;BME280;6591;51.446;5.404;2022-10-16T03:17:27;100736.19;;;17.96;55.93
13050;BME280;6591;51.446;5.404;2022-10-16T03:19:55;100738.88;;;17.96;55.69
13050;BME280;6591;51.446;5.404;2022-10-16T03:22:21;100740.72;;;17.95;55.64
13050;BME280;6591;51.446;5.404;2022-10-16T03:24:49;100733.50;;;17.96;55.93
13050;BME280;6591;51.446;5.404;2022-10-16T03:27:16;100741.56;;;17.96;55.82
13050;BME280;6591;51.446;5.404;2022-10-16T03:29:42;100752.31;;;17.96;56.00
13050;BME280;6591;51.446;5.404;2022-10-16T03:32:09;100747.94;;;17.95;55.96
13050;BME280;6591;51.446;5.404;2022-10-16T03:34:36;100751.25;;;17.98;56.08
13050;BME280;6591;51.446;5.404;2022-10-16T03:37:03;100742.31;;;17.98;56.20
13050;BME280;6591;51.446;5.404;2022-10-16T03:39:30;100746.63;;;18.00;55.99
13050;BME280;6591;51.446;5.404;2022-10-16T03:41:57;100748.31;;;18.01;56.15
13050;BME280;6591;51.446;5.404;2022-10-16T03:44:24;100758.84;;;18.04;55.79
13050;BME280;6591;51.446;5.404;2022-10-16T03:46:51;100766.03;;;18.04;56.09
13050;BME280;6591;51.446;5.404;2022-10-16T03:49:18;100763.47;;;18.02;55.98
13050;BME280;6591;51.446;5.404;2022-10-16T03:51:45;100768.72;;;18.04;55.86
13050;BME280;6591;51.446;5.404;2022-10-16T03:54:12;100772.13;;;18.06;56.20
13050;BME280;6591;51.446;5.404;2022-10-16T03:56:39;100772.97;;;18.06;56.06
13050;BME280;6591;51.446;5.404;2022-10-16T03:59:06;100775.56;;;18.08;56.35
13050;BME280;6591;51.446;5.404;2022-10-16T04:01:33;100766.41;;;18.10;56.29
13050;BME280;6591;51.446;5.404;2022-10-16T04:04:00;100765.19;;;18.14;56.33
13050;BME280;6591;51.446;5.404;2022-10-16T04:06:27;100770.31;;;18.17;56.30
13050;BME280;6591;51.446;5.404;2022-10-16T04:08:54;100762.25;;;18.17;56.37
13050;BME280;6591;51.446;5.404;2022-10-16T04:11:21;100768.38;;;18.19;56.32
13050;BME280;6591;51.446;5.404;2022-10-16T04:13:48;100768.13;;;18.23;56.46
13050;BME280;6591;51.446;5.404;2022-10-16T04:16:15;100776.19;;;18.23;56.36
13050;BME280;6591;51.446;5.404;2022-10-16T04:18:42;100785.13;;;18.23;56.26
13050;BME280;6591;51.446;5.404;2022-10-16T04:21:09;100781.19;;;18.27;56.51
13050;BME280;6591;51.446;5.404;2022-10-16T04:23:35;100781.94;;;18.29;56.61
13050;BME280;6591;51.446;5.404;2022-10-16T04:26:02;100774.63;;;18.31;56.48
13050;BME280;6591;51.446;5.404;2022-10-16T04:28:29;100776.31;;;18.32;56.19
13050;BME280;6591;51.446;5.404;2022-10-16T04:30:58;100767.16;;;18.35;56.16
13050;BME280;6591;51.446;5.404;2022-10-16T04:33:24;100776.81;;;18.37;56.41
13050;BME280;6591;51.446;5.404;2022-10-16T04:36:02;100783.19;;;18.36;56.37
13050;BME280;6591;51.446;5.404;2022-10-16T04:38:30;100773.16;;;18.38;56.30
13050;BME280;6591;51.446;5.404;2022-10-16T04:40:58;100778.41;;;18.40;56.12
13050;BME280;6591;51.446;5.404;2022-10-16T04:43:26;100786.38;;;18.41;56.14
13050;BME280;6591;51.446;5.404;2022-10-16T04:45:53;100795.31;;;18.42;56.50
13050;BME280;6591;51.446;5.404;2022-10-16T04:48:21;100797.13;;;18.41;56.45
13050;BME280;6591;51.446;5.404;2022-10-16T04:50:48;100800.78;;;18.40;56.72
13050;BME280;6591;51.446;5.404;2022-10-16T04:53:21;100806.88;;;18.42;56.12
13050;BME280;6591;51.446;5.404;2022-10-16T04:55:48;100793.44;;;18.42;56.44
13050;BME280;6591;51.446;5.404;2022-10-16T04:58:15;100802.50;;;18.41;56.40
13050;BME280;6591;51.446;5.404;2022-10-16T05:00:42;100806.06;;;18.42;56.48
13050;BME280;6591;51.446;5.404;2022-10-16T05:03:09;100811.53;;;18.40;56.51
13050;BME280;6591;51.446;5.404;2022-10-16T05:05:36;100813.38;;;18.40;56.39
13050;BME280;6591;51.446;5.404;2022-10-16T05:08:04;100823.16;;;18.41;56.27
13050;BME280;6591;51.446;5.404;2022-10-16T05:10:31;100824.03;;;18.41;56.38
13050;BME280;6591;51.446;5.404;2022-10-16T05:12:58;100837.47;;;18.41;56.32
13050;BME280;6591;51.446;5.404;2022-10-16T05:15:25;100839.16;;;18.42;56.27
13050;BME280;6591;51.446;5.404;2022-10-16T05:17:53;100837.56;;;18.40;56.06
13050;BME280;6591;51.446;5.404;2022-10-16T05:20:22;100833.06;;;18.40;56.37
13050;BME280;6591;51.446;5.404;2022-10-16T05:22:49;100840.38;;;18.38;56.16
13050;BME280;6591;51.446;5.404;2022-10-16T05:25:17;100851.13;;;18.38;56.23
13050;BME280;6591;51.446;5.404;2022-10-16T05:27:48;100847.72;;;18.36;56.15
13050;BME280;6591;51.446;5.404;2022-10-16T05:30:17;100844.16;;;18.36;56.16
13050;BME280;6591;51.446;5.404;2022-10-16T05:32:49;100845.25;;;18.33;56.14
13050;BME280;6591;51.446;5.404;2022-10-16T05:35:18;100845.25;;;18.33;56.24
13050;BME280;6591;51.446;5.404;2022-10-16T05:37:46;100851.59;;;18.32;56.47
13050;BME280;6591;51.446;5.404;2022-10-16T05:40:13;100858.94;;;18.30;56.04
13050;BME280;6591;51.446;5.404;2022-10-16T05:42:40;100864.31;;;18.30;56.16
13050;BME280;6591;51.446;5.404;2022-10-16T05:45:10;100870.78;;;18.28;56.28
13050;BME280;6591;51.446;5.404;2022-10-16T05:47:38;100877.00;;;18.28;56.24
13050;BME280;6591;51.446;5.404;2022-10-16T05:50:07;100878.97;;;18.26;56.53
13050;BME280;6591;51.446;5.404;2022-10-16T05:52:34;100878.97;;;18.26;56.34
13050;BME280;6591;51.446;5.404;2022-10-16T05:55:01;100887.16;;;18.25;56.58
13050;BME280;6591;51.446;5.404;2022-10-16T05:57:28;100896.19;;;18.24;56.48
13050;BME280;6591;51.446;5.404;2022-10-16T05:59:56;100898.00;;;18.23;56.39
13050;BME280;6591;51.446;5.404;2022-10-16T06:02:23;100897.91;;;18.25;56.44
13050;BME280;6591;51.446;5.404;2022-10-16T06:04:52;100889.09;;;18.23;56.36
13050;BME280;6591;51.446;5.404;2022-10-16T06:07:20;100898.88;;;18.24;56.48
13050;BME280;6591;51.446;5.404;2022-10-16T06:09:49;100901.66;;;18.22;56.54
13050;BME280;6591;51.446;5.404;2022-10-16T06:12:16;100899.84;;;18.23;56.78
13050;BME280;6591;51.446;5.404;2022-10-16T06:14:45;100905.22;;;18.23;56.49
13050;BME280;6591;51.446;5.404;2022-10-16T06:17:14;100922.22;;;18.23;56.75
13050;BME280;6591;51.446;5.404;2022-10-16T06:19:41;100931.03;;;18.25;56.87
13050;BME280;6591;51.446;5.404;2022-10-16T06:22:08;100923.94;;;18.24;56.75
13050;BME280;6591;51.446;5.404;2022-10-16T06:24:35;100926.63;;;18.24;56.63
13050;BME280;6591;51.446;5.404;2022-10-16T06:27:04;100926.72;;;18.23;56.38
13050;BME280;6591;51.446;5.404;2022-10-16T06:29:31;100930.28;;;18.23;56.50
13050;BME280;6591;51.446;5.404;2022-10-16T06:31:58;100937.25;;;18.26;56.53
13050;BME280;6591;51.446;5.404;2022-10-16T06:34:25;100944.31;;;18.27;56.94
13050;BME280;6591;51.446;5.404;2022-10-16T06:36:52;100950.56;;;18.27;57.11
13050;BME280;6591;51.446;5.404;2022-10-16T06:39:20;100960.34;;;18.28;56.77
13050;BME280;6591;51.446;5.404;2022-10-16T06:41:46;100957.66;;;18.28;56.62
13050;BME280;6591;51.446;5.404;2022-10-16T06:44:16;100967.44;;;18.29;56.61
13050;BME280;6591;51.446;5.404;2022-10-16T06:46:43;100975.50;;;18.29;56.67
13050;BME280;6591;51.446;5.404;2022-10-16T06:49:10;100978.09;;;18.31;56.78
13050;BME280;6591;51.446;5.404;2022-10-16T06:51:37;100986.03;;;18.32;56.62
13050;BME280;6591;51.446;5.404;2022-10-16T06:54:09;100985.06;;;18.33;56.95
13050;BME280;6591;51.446;5.404;2022-10-16T06:56:36;100989.47;;;18.34;56.63
13050;BME280;6591;51.446;5.404;2022-10-16T06:59:03;100991.91;;;18.37;57.04
13050;BME280;6591;51.446;5.404;2022-10-16T07:01:32;100998.03;;;18.39;56.83
13050;BME280;6591;51.446;5.404;2022-10-16T07:04:01;100992.56;;;18.41;56.87
13050;BME280;6591;51.446;5.404;2022-10-16T07:06:32;101005.66;;;18.45;57.16
13050;BME280;6591;51.446;5.404;2022-10-16T07:09:06;101004.44;;;18.49;57.23
13050;BME280;6591;51.446;5.404;2022-10-16T07:11:33;100994.22;;;18.54;56.92
13050;BME280;6591;51.446;5.404;2022-10-16T07:14:00;101010.00;;;18.59;57.34
13050;BME280;6591;51.446;5.404;2022-10-16T07:16:30;101005.28;;;18.63;57.04
13050;BME280;6591;51.446;5.404;2022-10-16T07:19:01;101013.00;;;18.67;57.08
13050;BME280;6591;51.446;5.404;2022-10-16T07:21:34;101024.13;;;18.74;57.39
13050;BME280;6591;51.446;5.404;2022-10-16T07:24:11;101024.28;;;18.83;57.85
13050;BME280;6591;51.446;5.404;2022-10-16T07:26:41;101024.19;;;18.96;57.62
13050;BME280;6591;51.446;5.404;2022-10-16T07:29:20;101028.03;;;19.04;58.05
13050;BME280;6591;51.446;5.404;2022-10-16T07:31:49;101035.00;;;19.18;57.77
13050;BME280;6591;51.446;5.404;2022-10-16T07:34:18;101042.00;;;19.32;58.00
13050;BME280;6591;51.446;5.404;2022-10-16T07:36:49;101044.38;;;19.48;57.84
13050;BME280;6591;51.446;5.404;2022-10-16T07:39:17;101042.31;;;19.62;58.13
13050;BME280;6591;51.446;5.404;2022-10-16T07:41:44;101051.72;;;19.79;57.90
13050;BME280;6591;51.446;5.404;2022-10-16T07:44:11;101059.31;;;19.96;57.71
13050;BME280;6591;51.446;5.404;2022-10-16T07:46:39;101067.13;;;20.10;57.70
13050;BME280;6591;51.446;5.404;2022-10-16T07:49:06;101066.72;;;20.26;57.27
13050;BME280;6591;51.446;5.404;2022-10-16T07:51:33;101070.88;;;20.41;57.63
13050;BME280;6591;51.446;5.404;2022-10-16T07:54:00;101070.72;;;20.54;57.28
13050;BME280;6591;51.446;5.404;2022-10-16T07:56:27;101082.09;;;20.68;57.09
13050;BME280;6591;51.446;5.404;2022-10-16T07:58:54;101077.38;;;20.82;56.89
13050;BME280;6591;51.446;5.404;2022-10-16T08:01:21;101092.41;;;20.95;56.72
13050;BME280;6591;51.446;5.404;2022-10-16T08:03:50;101094.06;;;21.07;56.83
13050;BME280;6591;51.446;5.404;2022-10-16T08:06:19;101089.50;;;21.19;56.22
13050;BME280;6591;51.446;5.404;2022-10-16T08:08:55;101088.59;;;21.30;56.37
13050;BME280;6591;51.446;5.404;2022-10-16T08:11:22;101101.00;;;21.42;56.31
13050;BME280;6591;51.446;5.404;2022-10-16T08:13:50;101101.66;;;21.55;56.36
13050;BME280;6591;51.446;5.404;2022-10-16T08:16:16;101111.41;;;21.67;55.99
13050;BME280;6591;51.446;5.404;2022-10-16T08:18:44;101116.00;;;21.76;55.58
13050;BME280;6591;51.446;5.404;2022-10-16T08:21:17;101120.47;;;21.87;55.64
13050;BME280;6591;51.446;5.404;2022-10-16T08:23:47;101121.25;;;21.98;55.47
13050;BME280;6591;51.446;5.404;2022-10-16T08:26:25;101119.31;;;22.10;55.24
13050;BME280;6591;51.446;5.404;2022-10-16T08:28:53;101122.78;;;22.22;55.25
13050;BME280;6591;51.446;5.404;2022-10-16T08:31:21;101119.22;;;22.31;55.12
13050;BME280;6591;51.446;5.404;2022-10-16T08:33:48;101119.97;;;22.43;54.89
13050;BME280;6591;51.446;5.404;2022-10-16T08:36:16;101125.41;;;22.52;54.60
13050;BME280;6591;51.446;5.404;2022-10-16T08:38:43;101127.44;;;22.60;54.59
13050;BME280;6591;51.446;5.404;2022-10-16T08:44:34;101145.28;;;22.72;54.21
13050;BME280;6591;51.446;5.404;2022-10-16T08:47:26;101140.59;;;22.84;53.83
13050;BME280;6591;51.446;5.404;2022-10-16T08:50:13;101134.31;;;22.93;53.91
13050;BME280;6591;51.446;5.404;2022-10-16T08:52:44;101150.19;;;23.07;53.46
13050;BME280;6591;51.446;5.404;2022-10-16T08:55:34;101158.00;;;23.10;53.54
13050;BME280;6591;51.446;5.404;2022-10-16T08:58:13;101153.31;;;23.21;53.71
13050;BME280;6591;51.446;5.404;2022-10-16T09:00:44;101155.75;;;23.34;53.39
13050;BME280;6591;51.446;5.404;2022-10-16T09:04:04;101154.44;;;23.38;53.35
13050;BME280;6591;51.446;5.404;2022-10-16T09:06:46;101156.72;;;23.52;53.22
13050;BME280;6591;51.446;5.404;2022-10-16T09:12:57;101171.09;;;23.72;52.79
13050;BME280;6591;51.446;5.404;2022-10-16T09:15:59;101166.22;;;23.85;52.08
13050;BME280;6591;51.446;5.404;2022-10-16T09:19:12;101169.63;;;23.97;52.22
13050;BME280;6591;51.446;5.404;2022-10-16T09:21:44;101166.13;;;24.14;51.97
13050;BME280;6591;51.446;5.404;2022-10-16T09:24:20;101171.38;;;24.25;51.76
13050;BME280;6591;51.446;5.404;2022-10-16T09:26:52;101176.31;;;24.39;51.75
13050;BME280;6591;51.446;5.404;2022-10-16T09:29:21;101188.84;;;24.50;51.24
13050;BME280;6591;51.446;5.404;2022-10-16T09:31:51;101184.22;;;24.60;51.38
13050;BME280;6591;51.446;5.404;2022-10-16T09:34:33;101184.59;;;24.65;50.73
13050;BME280;6591;51.446;5.404;2022-10-16T09:37:08;101186.25;;;24.76;50.57
13050;BME280;6591;51.446;5.404;2022-10-16T09:39:54;101184.38;;;24.86;50.69
13050;BME280;6591;51.446;5.404;2022-10-16T09:42:34;101187.19;;;24.94;50.22
13050;BME280;6591;51.446;5.404;2022-10-16T09:45:03;101182.91;;;25.09;50.49
13050;BME280;6591;51.446;5.404;2022-10-16T09:47:31;101189.13;;;25.19;50.19
13050;BME280;6591;51.446;5.404;2022-10-16T09:50:20;101191.94;;;25.27;50.05
13050;BME280;6591;51.446;5.404;2022-10-16T09:52:48;101193.78;;;25.45;50.09
13050;BME280;6591;51.446;5.404;2022-10-16T09:55:17;101199.38;;;25.61;50.14
13050;BME280;6591;51.446;5.404;2022-10-16T09:57:52;101202.22;;;25.77;49.98
13050;BME280;6591;51.446;5.404;2022-10-16T10:00:22;101197.44;;;25.97;49.14
13050;BME280;6591;51.446;5.404;2022-10-16T10:02:50;101192.28;;;26.11;49.49
13050;BME280;6591;51.446;5.404;2022-10-16T10:05:28;101195.56;;;26.23;48.55
13050;BME280;6591;51.446;5.404;2022-10-16T10:08:02;101197.88;;;26.36;48.51
13050;BME280;6591;51.446;5.404;2022-10-16T10:10:39;101200.31;;;26.47;48.83
13050;BME280;6591;51.446;5.404;2022-10-16T10:13:22;101207.16;;;26.59;48.75
13050;BME280;6591;51.446;5.404;2022-10-16T10:15:51;101214.53;;;26.75;48.21
13050;BME280;6591;51.446;5.404;2022-10-16T10:18:21;101204.06;;;26.88;48.38
13050;BME280;6591;51.446;5.404;2022-10-16T10:21:03;101202.88;;;26.98;47.07
13050;BME280;6591;51.446;5.404;2022-10-16T10:23:32;101205.13;;;27.11;47.39
13050;BME280;6591;51.446;5.404;2022-10-16T10:26:15;101211.09;;;27.15;47.12
13050;BME280;6591;51.446;5.404;2022-10-16T10:29:01;101213.16;;;27.21;46.99
13050;BME280;6591;51.446;5.404;2022-10-16T10:31:52;101226.09;;;27.27;47.01
13050;BME280;6591;51.446;5.404;2022-10-16T10:35:13;101214.53;;;27.33;46.88
13050;BME280;6591;51.446;5.404;2022-10-16T10:40:51;101218.50;;;27.55;45.81
13050;BME280;6591;51.446;5.404;2022-10-16T10:46:41;101222.25;;;27.70;45.57
13050;BME280;6591;51.446;5.404;2022-10-16T10:55:42;101237.25;;;28.14;45.44
13050;BME280;6591;51.446;5.404;2022-10-16T11:01:10;101233.53;;;28.54;44.67
13050;BME280;6591;51.446;5.404;2022-10-16T11:04:25;101229.38;;;28.75;44.87
13050;BME280;6591;51.446;5.404;2022-10-16T11:07:09;101233.84;;;29.06;44.37
13050;BME280;6591;51.446;5.404;2022-10-16T11:09:45;101232.31;;;29.35;43.86
13050;BME280;6591;51.446;5.404;2022-10-16T11:12:42;101233.66;;;29.62;43.37
13050;BME280;6591;51.446;5.404;2022-10-16T11:15:35;101237.59;;;29.82;42.78
13050;BME280;6591;51.446;5.404;2022-10-16T11:18:20;101233.31;;;30.02;42.54
13050;BME280;6591;51.446;5.404;2022-10-16T11:20:54;101234.63;;;30.21;42.09
13050;BME280;6591;51.446;5.404;2022-10-16T11:23:43;101239.03;;;30.30;41.07
13050;BME280;6591;51.446;5.404;2022-10-16T11:26:19;101241.84;;;30.37;41.04
13050;BME280;6591;51.446;5.404;2022-10-16T11:28:55;101248.00;;;30.39;41.11
13050;BME280;6591;51.446;5.404;2022-10-16T11:31:37;101250.06;;;30.37;40.50
13050;BME280;6591;51.446;5.404;2022-10-16T11:34:30;101239.38;;;30.27;40.15
13050;BME280;6591;51.446;5.404;2022-10-16T11:37:14;101244.28;;;30.17;39.50
13050;BME280;6591;51.446;5.404;2022-10-16T11:39:44;101236.06;;;30.02;39.87
13050;BME280;6591;51.446;5.404;2022-10-16T11:42:20;101239.09;;;29.84;39.42
13050;BME280;6591;51.446;5.404;2022-10-16T11:48:00;101257.75;;;29.43;39.42
13050;BME280;6591;51.446;5.404;2022-10-16T11:53:43;101244.91;;;29.13;40.19
13050;BME280;6591;51.446;5.404;2022-10-16T11:56:20;101244.44;;;29.10;39.69
13050;BME280;6591;51.446;5.404;2022-10-16T11:59:05;101247.34;;;29.08;39.57
13050;BME280;6591;51.446;5.404;2022-10-16T12:01:43;101240.84;;;29.09;39.62
13050;BME280;6591;51.446;5.404;2022-10-16T12:07:08;101240.19;;;29.30;40.30
13050;BME280;6591;51.446;5.404;2022-10-16T12:09:40;101253.72;;;29.54;40.46
13050;BME280;6591;51.446;5.404;2022-10-16T12:15:29;101268.94;;;30.02;39.55
13050;BME280;6591;51.446;5.404;2022-10-16T12:18:24;101267.19;;;30.24;39.52
13050;BME280;6591;51.446;5.404;2022-10-16T12:20:59;101262.28;;;30.34;39.11
13050;BME280;6591;51.446;5.404;2022-10-16T12:23:36;101267.84;;;30.41;38.10
13050;BME280;6591;51.446;5.404;2022-10-16T12:26:06;101258.38;;;30.43;38.17
13050;BME280;6591;51.446;5.404;2022-10-16T12:28:33;101250.72;;;30.39;38.04
13050;BME280;6591;51.446;5.404;2022-10-16T12:31:07;101259.41;;;30.27;37.63
13050;BME280;6591;51.446;5.404;2022-10-16T12:33:41;101257.63;;;30.20;38.02
13050;BME280;6591;51.446;5.404;2022-10-16T12:36:27;101261.75;;;30.16;37.83
13050;BME280;6591;51.446;5.404;2022-10-16T12:38:59;101265.00;;;30.19;37.99
13050;BME280;6591;51.446;5.404;2022-10-16T12:41:35;101259.22;;;30.14;37.83
13050;BME280;6591;51.446;5.404;2022-10-16T12:44:24;101250.50;;;30.11;37.84
13050;BME280;6591;51.446;5.404;2022-10-16T12:46:52;101254.38;;;30.16;38.09
13050;BME280;6591;51.446;5.404;2022-10-16T12:49:37;101250.16;;;30.14;37.64
13050;BME280;6591;51.446;5.404;2022-10-16T12:52:28;101258.16;;;30.15;37.78
13050;BME280;6591;51.446;5.404;2022-10-16T12:54:57;101251.59;;;30.24;37.97
13050;BME280;6591;51.446;5.404;2022-10-16T12:58:08;101238.34;;;30.28;38.46
13050;BME280;6591;51.446;5.404;2022-10-16T13:00:54;101234.56;;;30.44;37.96
13050;BME280;6591;51.446;5.404;2022-10-16T13:03:49;101241.31;;;30.56;37.78
13050;BME280;6591;51.446;5.404;2022-10-16T13:06:53;101245.72;;;30.57;37.30
13050;BME280;6591;51.446;5.404;2022-10-16T13:10:14;101237.06;;;30.53;37.80
13050;BME280;6591;51.446;5.404;2022-10-16T13:30:19;101260.88;;;30.01;37.17
13050;BME280;6591;51.446;5.404;2022-10-16T13:32:56;101263.50;;;29.94;37.34
13050;BME280;6591;51.446;5.404;2022-10-16T13:35:34;101265.28;;;29.87;37.48
13050;BME280;6591;51.446;5.404;2022-10-16T13:38:12;101267.50;;;29.83;37.16
13050;BME280;6591;51.446;5.404;2022-10-16T13:40:52;101279.41;;;29.76;37.75
13050;BME280;6591;51.446;5.404;2022-10-16T13:43:28;101274.31;;;29.73;37.21
13050;BME280;6591;51.446;5.404;2022-10-16T13:46:14;101271.44;;;29.66;37.35
13050;BME280;6591;51.446;5.404;2022-10-16T13:48:42;101279.34;;;29.61;37.71
13050;BME280;6591;51.446;5.404;2022-10-16T13:51:16;101275.81;;;29.53;37.52
13050;BME280;6591;51.446;5.404;2022-10-16T13:53:45;101274.63;;;29.47;37.83
13050;BME280;6591;51.446;5.404;2022-10-16T13:56:21;101275.75;;;29.38;37.56
13050;BME280;6591;51.446;5.404;2022-10-16T13:59:22;101272.34;;;29.28;37.46
13050;BME280;6591;51.446;5.404;2022-10-16T14:01:53;101274.59;;;29.24;37.69
13050;BME280;6591;51.446;5.404;2022-10-16T14:04:21;101286.75;;;29.22;37.69
13050;BME280;6591;51.446;5.404;2022-10-16T14:06:50;101291.06;;;29.16;37.65
13050;BME280;6591;51.446;5.404;2022-10-16T14:09:27;101271.78;;;29.10;37.59
13050;BME280;6591;51.446;5.404;2022-10-16T14:12:03;101284.09;;;29.05;37.76
13050;BME280;6591;51.446;5.404;2022-10-16T14:14:51;101278.84;;;28.96;37.69
13050;BME280;6591;51.446;5.404;2022-10-16T14:17:26;101291.19;;;28.92;37.60
13050;BME280;6591;51.446;5.404;2022-10-16T14:19:57;101271.03;;;28.85;37.64
13050;BME280;6591;51.446;5.404;2022-10-16T14:22:39;101264.94;;;28.75;38.05
13050;BME280;6591;51.446;5.404;2022-10-16T14:30:59;101273.88;;;28.52;38.11
13050;BME280;6591;51.446;5.404;2022-10-16T14:33:33;101266.38;;;28.46;38.38
13050;BME280;6591;51.446;5.404;2022-10-16T14:36:11;101253.41;;;28.40;37.82
13050;BME280;6591;51.446;5.404;2022-10-16T14:38:55;101253.75;;;28.37;38.04
13050;BME280;6591;51.446;5.404;2022-10-16T14:41:24;101262.28;;;28.42;38.98